Weather at Seletar Airport

Public forecast

Using degrees Celsius for public forecast. Weather courtesy of forecast.io.

Current aviation weather report (METAR) for Seletar Airport

Retrieved 2022/08/19 01:00 UTC (22 minutes ago):

WSSL 190100Z VRB01KT 9999 FEW015 SCT018TCU 28/25 Q1010

Aviation forecast (TAF) for Seletar Airport

Retrieved 2022-08-19 00:09 UTC (1 hour ago):

TAF WSSL 182300Z 1900/2006 16007KT 9999 FEW015 BKN020 TEMPO 1903/1907 3000 TSRA FEW012CB BKN015